createdAt,value
2022-12-02T00:00:57.900Z,14.95
2022-12-02T00:03:25.736Z,14.48
2022-12-02T00:05:55.267Z,14.20
2022-12-02T00:08:29.208Z,13.13
2022-12-02T00:10:57.607Z,12.65
2022-12-02T00:13:43.328Z,13.02
2022-12-02T00:16:20.684Z,13.15
2022-12-02T00:18:47.159Z,12.73
2022-12-02T00:21:13.486Z,12.55
2022-12-02T00:23:39.843Z,12.07
2022-12-02T00:26:06.436Z,12.40
2022-12-02T00:28:32.776Z,13.02
2022-12-02T00:30:59.127Z,12.38
2022-12-02T00:33:25.510Z,13.13
2022-12-02T00:35:51.866Z,12.77
2022-12-02T00:38:18.270Z,12.30
2022-12-02T00:40:44.630Z,12.15
2022-12-02T00:43:29.578Z,12.60
2022-12-02T00:46:14.458Z,12.70
2022-12-02T00:48:40.875Z,12.05
2022-12-02T00:51:07.302Z,12.18
2022-12-02T00:53:33.777Z,13.02
2022-12-02T00:56:00.202Z,12.85
2022-12-02T00:58:26.517Z,12.50
2022-12-02T01:00:53.047Z,12.32
2022-12-02T01:03:19.544Z,12.35
2022-12-02T01:09:33.083Z,12.27
2022-12-02T01:11:59.406Z,13.02
2022-12-02T01:14:25.850Z,11.65
2022-12-02T01:16:52.958Z,11.88
2022-12-02T01:19:22.020Z,10.68
2022-12-02T01:21:48.414Z,11.07
2022-12-02T01:24:14.835Z,11.20
2022-12-02T01:26:41.149Z,12.52
2022-12-02T01:29:07.991Z,11.00
2022-12-02T01:31:34.687Z,10.32
2022-12-02T01:34:01.063Z,11.23
2022-12-02T01:36:27.384Z,11.15
2022-12-02T01:38:53.710Z,11.85
2022-12-02T01:41:20.317Z,10.85
2022-12-02T01:43:46.975Z,11.63
2022-12-02T01:46:13.451Z,10.38
2022-12-02T01:48:39.931Z,11.40
2022-12-02T01:51:06.978Z,11.68
2022-12-02T01:53:34.956Z,11.48
2022-12-02T01:56:01.999Z,11.00
2022-12-02T01:58:30.461Z,10.88
2022-12-02T02:00:57.899Z,11.18
2022-12-02T02:03:24.479Z,10.02
2022-12-02T02:05:53.294Z,9.80
2022-12-02T02:08:19.976Z,12.10
2022-12-02T02:10:47.740Z,12.23
2022-12-02T02:13:17.043Z,10.65
2022-12-02T02:15:45.222Z,11.45
2022-12-02T02:18:12.114Z,11.73
2022-12-02T02:20:41.068Z,11.38
2022-12-02T02:23:07.402Z,11.63
2022-12-02T02:25:39.237Z,11.02
2022-12-02T02:28:07.522Z,10.80
2022-12-02T02:30:35.760Z,11.18
2022-12-02T02:33:08.610Z,11.32
2022-12-02T02:35:37.130Z,12.15
2022-12-02T02:38:05.781Z,11.75
2022-12-02T02:40:32.670Z,11.63
2022-12-02T02:43:01.688Z,11.73
2022-12-02T02:45:31.050Z,12.75
2022-12-02T02:47:57.866Z,11.63
2022-12-02T02:50:25.044Z,11.45
2022-12-02T02:52:52.117Z,11.77
2022-12-02T02:55:22.040Z,11.85
2022-12-02T02:57:48.686Z,11.45
2022-12-02T03:00:17.775Z,11.68
2022-12-02T03:02:49.379Z,11.45
2022-12-02T03:05:16.495Z,11.60
2022-12-02T03:07:43.272Z,11.93
2022-12-02T03:10:10.618Z,12.18
2022-12-02T03:12:37.266Z,12.73
2022-12-02T03:15:05.993Z,11.43
2022-12-02T03:17:32.500Z,11.20
2022-12-02T03:19:58.976Z,12.77
2022-12-02T03:22:26.130Z,12.70
2022-12-02T03:24:52.878Z,11.65
2022-12-02T03:27:19.574Z,12.35
2022-12-02T03:29:46.633Z,12.25
2022-12-02T03:32:13.146Z,12.25
2022-12-02T03:34:42.014Z,12.68
2022-12-02T03:37:09.899Z,12.90
2022-12-02T03:39:37.758Z,12.18
2022-12-02T03:42:04.920Z,13.27
2022-12-02T03:44:31.414Z,12.25
2022-12-02T03:46:57.900Z,11.43
2022-12-02T03:49:25.304Z,12.52
2022-12-02T03:51:51.958Z,12.30
2022-12-02T03:54:18.888Z,12.93
2022-12-02T03:56:45.553Z,14.02
2022-12-02T03:59:21.239Z,12.10
2022-12-02T04:01:47.804Z,11.98
2022-12-02T04:04:14.266Z,12.95
2022-12-02T04:06:41.894Z,12.25
2022-12-02T04:09:08.238Z,12.27
2022-12-02T04:11:34.603Z,12.32
2022-12-02T04:14:01.034Z,13.68
2022-12-02T04:16:27.559Z,11.38
2022-12-02T04:18:53.967Z,13.13
2022-12-02T04:21:21.642Z,12.43
2022-12-02T04:23:48.620Z,12.98
2022-12-02T04:26:15.066Z,12.98
2022-12-02T04:28:41.415Z,12.45
2022-12-02T04:31:07.780Z,12.50
2022-12-02T04:33:34.149Z,12.25
2022-12-02T04:36:00.543Z,12.57
2022-12-02T04:38:26.950Z,13.07
2022-12-02T04:40:53.270Z,12.38
2022-12-02T04:43:19.627Z,12.65
2022-12-02T04:45:46.058Z,12.40
2022-12-02T04:48:12.391Z,12.70
2022-12-02T04:50:38.734Z,11.50
2022-12-02T04:53:05.084Z,12.93
2022-12-02T04:55:31.493Z,12.10
2022-12-02T04:57:57.790Z,12.15
2022-12-02T05:00:24.285Z,12.48
2022-12-02T05:02:50.648Z,13.10
2022-12-02T05:05:17.169Z,12.85
2022-12-02T05:07:43.577Z,12.07
2022-12-02T05:10:10.321Z,12.80
2022-12-02T05:12:36.658Z,12.05
2022-12-02T05:15:03.065Z,12.15
2022-12-02T05:17:30.819Z,11.60
2022-12-02T05:19:57.430Z,12.07
2022-12-02T05:22:23.907Z,11.48
2022-12-02T05:24:50.587Z,11.60
2022-12-02T05:27:18.067Z,12.63
2022-12-02T05:29:44.373Z,13.52
2022-12-02T05:32:10.702Z,11.30
2022-12-02T05:34:37.167Z,12.52
2022-12-02T05:37:03.713Z,11.98
2022-12-02T05:39:30.131Z,12.45
2022-12-02T05:42:02.206Z,11.73
2022-12-02T05:44:29.801Z,11.55
2022-12-02T05:47:02.819Z,13.07
2022-12-02T05:49:31.102Z,12.40
2022-12-02T05:51:59.994Z,11.52
2022-12-02T05:54:28.031Z,12.60
2022-12-02T05:56:56.660Z,13.57
2022-12-02T05:59:23.974Z,12.52
2022-12-02T06:01:53.332Z,12.55
2022-12-02T06:04:25.661Z,12.15
2022-12-02T06:06:54.404Z,13.25
2022-12-02T06:09:24.439Z,13.70
2022-12-02T06:11:50.831Z,12.50
2022-12-02T06:14:21.131Z,13.48
2022-12-02T06:16:52.631Z,12.48
2022-12-02T06:19:37.565Z,12.93
2022-12-02T06:22:04.237Z,12.57
2022-12-02T06:24:33.019Z,12.32
2022-12-02T06:27:01.539Z,12.73
2022-12-02T06:29:29.938Z,12.77
2022-12-02T06:31:59.396Z,13.57
2022-12-02T06:34:36.370Z,13.32
2022-12-02T06:37:13.593Z,12.57
2022-12-02T06:39:58.236Z,11.85
2022-12-02T06:42:30.747Z,13.00
2022-12-02T06:45:30.993Z,12.55
2022-12-02T06:48:12.661Z,12.93
2022-12-02T06:50:45.675Z,13.57
2022-12-02T06:53:38.085Z,13.15
2022-12-02T06:56:14.301Z,12.65
2022-12-02T06:58:42.546Z,13.57
2022-12-02T07:01:31.085Z,13.43
2022-12-02T07:04:06.593Z,12.32
2022-12-02T07:06:33.705Z,13.32
2022-12-02T07:09:18.765Z,11.82
2022-12-02T07:11:51.461Z,13.33
2022-12-02T07:14:30.008Z,11.93
2022-12-02T07:17:01.074Z,12.77
2022-12-02T07:19:37.622Z,12.90
2022-12-02T07:22:14.157Z,11.43
2022-12-02T07:24:41.602Z,11.85
2022-12-02T07:27:23.168Z,12.13
2022-12-02T07:29:49.932Z,13.27
2022-12-02T07:32:16.378Z,12.00
2022-12-02T07:34:42.762Z,11.80
2022-12-02T07:37:09.082Z,12.00
2022-12-02T07:39:35.393Z,11.60
2022-12-02T07:42:01.771Z,12.27
2022-12-02T07:44:28.139Z,11.20
2022-12-02T07:46:54.503Z,12.65
2022-12-02T07:49:20.916Z,11.70
2022-12-02T07:51:47.384Z,11.38
2022-12-02T07:54:13.773Z,10.52
2022-12-02T07:56:40.222Z,11.75
2022-12-02T07:59:14.253Z,11.40
2022-12-02T08:01:41.374Z,11.45
2022-12-02T08:04:08.248Z,10.40
2022-12-02T08:06:39.494Z,11.18
2022-12-02T08:09:07.737Z,11.48
2022-12-02T08:11:34.155Z,10.20
2022-12-02T08:14:00.492Z,10.00
2022-12-02T08:16:26.959Z,10.57
2022-12-02T08:18:53.371Z,8.80
2022-12-02T08:21:19.729Z,9.20
2022-12-02T08:23:46.171Z,8.80
2022-12-02T08:26:12.598Z,9.60
2022-12-02T08:28:39.018Z,9.30
2022-12-02T08:31:05.666Z,9.60
2022-12-02T08:33:32.083Z,9.32
2022-12-02T08:35:58.523Z,8.38
2022-12-02T08:38:24.872Z,8.40
2022-12-02T08:40:51.218Z,8.43
2022-12-02T08:43:17.564Z,8.10
2022-12-02T08:45:43.978Z,8.05
2022-12-02T08:48:10.410Z,8.40
2022-12-02T08:50:36.805Z,8.40
2022-12-02T08:53:03.793Z,9.15
2022-12-02T08:55:30.718Z,9.05
2022-12-02T08:57:57.080Z,8.30
2022-12-02T09:00:23.813Z,8.70
2022-12-02T09:02:50.327Z,10.25
2022-12-02T09:05:17.271Z,8.93
2022-12-02T09:07:44.149Z,9.30
2022-12-02T09:10:12.331Z,9.77
2022-12-02T09:12:38.935Z,9.07
2022-12-02T09:15:06.800Z,8.88
2022-12-02T09:17:33.412Z,8.30
2022-12-02T09:19:59.839Z,8.70
2022-12-02T09:22:26.202Z,8.60
2022-12-02T09:24:52.809Z,8.30
2022-12-02T09:27:19.361Z,8.30
2022-12-02T09:29:45.727Z,7.97
2022-12-02T09:32:12.121Z,8.25
2022-12-02T09:34:38.530Z,8.07
2022-12-02T09:37:04.847Z,7.55
2022-12-02T09:39:37.072Z,8.10
2022-12-02T09:42:10.059Z,8.75
2022-12-02T09:44:38.351Z,9.00
2022-12-02T09:47:05.951Z,8.98
2022-12-02T09:49:32.991Z,8.38
2022-12-02T09:52:02.759Z,8.07
2022-12-02T09:54:29.415Z,7.97
2022-12-02T09:56:56.538Z,8.65
2022-12-02T09:59:22.944Z,7.97
2022-12-02T10:01:49.860Z,8.48
2022-12-02T10:04:22.810Z,8.60
2022-12-02T10:06:49.410Z,9.63
2022-12-02T10:09:30.454Z,10.88
2022-12-02T10:11:57.112Z,9.13
2022-12-02T10:14:23.460Z,10.20
2022-12-02T10:16:52.787Z,10.52
2022-12-02T10:19:20.312Z,10.60
2022-12-02T10:21:47.416Z,9.05
2022-12-02T10:24:14.018Z,12.25
2022-12-02T10:26:51.788Z,10.27
2022-12-02T10:29:26.277Z,8.88
2022-12-02T10:31:58.653Z,8.45
2022-12-02T10:34:27.177Z,8.75
2022-12-02T10:36:54.592Z,8.77
2022-12-02T10:39:21.169Z,8.10
2022-12-02T10:41:49.091Z,8.90
2022-12-02T10:44:20.885Z,8.13
2022-12-02T10:46:47.885Z,8.25
2022-12-02T10:49:28.599Z,9.02
2022-12-02T10:51:58.359Z,8.32
2022-12-02T10:54:29.136Z,7.85
2022-12-02T10:56:56.940Z,9.73
2022-12-02T10:59:24.123Z,9.10
2022-12-02T11:01:50.673Z,8.23
2022-12-02T11:04:17.177Z,7.68
2022-12-02T11:06:44.455Z,7.45
2022-12-02T11:09:40.197Z,8.45
2022-12-02T11:14:55.639Z,6.72
2022-12-02T11:17:51.464Z,8.02
2022-12-02T11:20:33.037Z,13.48
2022-12-02T11:22:59.343Z,7.95
2022-12-02T11:25:43.973Z,7.97
2022-12-02T11:28:28.536Z,8.90
2022-12-02T11:31:10.270Z,8.57
2022-12-02T11:34:05.715Z,8.68
2022-12-02T11:36:34.315Z,8.85
2022-12-02T11:39:04.908Z,8.38
2022-12-02T11:41:49.525Z,8.55
2022-12-02T11:44:28.298Z,8.80
2022-12-02T11:46:56.455Z,8.75
2022-12-02T11:49:37.091Z,8.55
2022-12-02T11:52:17.255Z,9.43
2022-12-02T11:54:55.099Z,8.45
2022-12-02T11:57:31.192Z,9.73
2022-12-02T11:59:58.289Z,9.10
2022-12-02T12:02:25.802Z,8.65
2022-12-02T12:05:04.562Z,8.35
2022-12-02T12:07:50.588Z,7.75
2022-12-02T12:13:16.907Z,7.90
2022-12-02T12:16:02.563Z,7.47
2022-12-02T12:18:47.292Z,8.70
2022-12-02T12:21:42.144Z,7.47
2022-12-02T12:24:18.182Z,7.90
2022-12-02T12:26:53.721Z,7.65
2022-12-02T12:31:48.128Z,8.18
2022-12-02T12:34:16.514Z,8.35
2022-12-02T12:36:44.028Z,9.15
2022-12-02T12:39:10.783Z,9.30
2022-12-02T12:44:29.737Z,9.50
2022-12-02T12:46:59.510Z,9.27
2022-12-02T12:49:25.926Z,8.95
2022-12-02T12:51:52.617Z,9.10
2022-12-02T12:54:19.215Z,9.30
2022-12-02T12:56:45.553Z,9.70
2022-12-02T12:59:11.882Z,9.27
2022-12-02T13:01:38.265Z,9.88
2022-12-02T13:04:06.330Z,9.35
2022-12-02T13:06:36.181Z,10.80
2022-12-02T13:09:06.157Z,9.73
2022-12-02T13:11:32.520Z,9.52
2022-12-02T13:13:58.886Z,9.10
2022-12-02T13:16:25.282Z,10.27
2022-12-02T13:18:51.636Z,11.32
2022-12-02T13:21:17.962Z,9.73
2022-12-02T13:23:44.269Z,9.45
2022-12-02T13:26:14.984Z,9.68
2022-12-02T13:28:42.018Z,9.32
2022-12-02T13:31:08.430Z,9.68
2022-12-02T13:33:34.842Z,10.88
2022-12-02T13:36:01.169Z,9.52
2022-12-02T13:38:27.527Z,10.65
2022-12-02T13:40:53.894Z,10.48
2022-12-02T13:43:20.216Z,8.95
2022-12-02T13:45:46.685Z,10.77
2022-12-02T13:48:13.714Z,9.55
2022-12-02T13:50:40.374Z,10.32
2022-12-02T13:53:07.012Z,10.07
2022-12-02T13:55:33.402Z,9.75
2022-12-02T13:57:59.720Z,9.55
2022-12-02T14:00:26.169Z,9.77
2022-12-02T14:02:53.720Z,9.38
2022-12-02T14:05:20.251Z,9.52
2022-12-02T14:07:46.643Z,9.45
2022-12-02T14:10:13.076Z,12.80
2022-12-02T14:12:39.408Z,12.00
2022-12-02T14:15:06.636Z,11.02
2022-12-02T14:17:33.003Z,9.63
2022-12-02T14:19:59.446Z,10.60
2022-12-02T14:22:25.795Z,9.85
2022-12-02T14:24:52.623Z,14.32
2022-12-02T14:27:19.237Z,19.98
2022-12-02T14:29:45.596Z,12.52
2022-12-02T14:32:12.075Z,11.45
2022-12-02T14:34:38.489Z,14.35
2022-12-02T14:37:07.484Z,8.75
2022-12-02T14:39:36.313Z,9.05
2022-12-02T14:42:02.700Z,9.30
2022-12-02T14:44:29.022Z,9.75
2022-12-02T14:46:55.480Z,9.93
2022-12-02T14:52:08.541Z,8.55
2022-12-02T14:54:34.929Z,9.82
2022-12-02T14:57:01.345Z,9.25
2022-12-02T14:59:27.671Z,8.93
2022-12-02T15:01:54.227Z,9.55
2022-12-02T15:04:20.759Z,8.95
2022-12-02T15:06:47.507Z,8.50
2022-12-02T15:09:14.655Z,7.78
2022-12-02T15:11:40.999Z,8.02
2022-12-02T15:14:07.393Z,9.10
2022-12-02T15:16:33.888Z,8.43
2022-12-02T15:19:00.275Z,7.82
2022-12-02T15:21:26.623Z,8.20
2022-12-02T15:23:52.941Z,8.75
2022-12-02T15:26:19.305Z,8.15
2022-12-02T15:28:45.666Z,8.43
2022-12-02T15:31:12.109Z,8.10
2022-12-02T15:33:38.479Z,8.63
2022-12-02T15:36:05.173Z,8.20
2022-12-02T15:38:33.142Z,7.30
2022-12-02T15:40:59.885Z,7.95
2022-12-02T15:43:26.221Z,7.40
2022-12-02T15:45:53.598Z,7.22
2022-12-02T15:48:20.164Z,7.88
2022-12-02T15:50:50.305Z,7.60
2022-12-02T15:53:24.424Z,7.13
2022-12-02T15:55:55.575Z,7.68
2022-12-02T15:58:22.110Z,7.70
2022-12-02T16:00:52.147Z,7.82
2022-12-02T16:03:18.636Z,7.22
2022-12-02T16:05:44.978Z,6.60
2022-12-02T16:08:11.425Z,6.88
2022-12-02T16:10:37.835Z,7.22
2022-12-02T16:13:04.144Z,6.95
2022-12-02T16:15:30.495Z,8.10
2022-12-02T16:17:56.924Z,7.22
2022-12-02T16:20:23.547Z,6.68
2022-12-02T16:22:50.098Z,6.93
2022-12-02T16:25:16.867Z,7.25
2022-12-02T16:27:43.224Z,8.02
2022-12-02T16:30:10.349Z,7.07
2022-12-02T16:32:36.643Z,7.05
2022-12-02T16:35:03.066Z,7.25
2022-12-02T16:37:29.495Z,6.35
2022-12-02T16:39:55.886Z,6.82
2022-12-02T16:42:22.535Z,6.95
2022-12-02T16:44:53.819Z,6.28
2022-12-02T16:47:21.631Z,6.55
2022-12-02T16:49:48.416Z,6.68
2022-12-02T16:52:14.726Z,7.38
2022-12-02T16:54:41.180Z,6.65
2022-12-02T16:57:07.515Z,7.20
2022-12-02T16:59:33.914Z,6.97
2022-12-02T17:02:00.341Z,6.97
2022-12-02T17:04:26.953Z,12.95
2022-12-02T17:06:53.314Z,8.85
2022-12-02T17:09:19.751Z,8.93
2022-12-02T17:11:46.343Z,8.73
2022-12-02T17:14:12.907Z,7.57
2022-12-02T17:16:39.329Z,7.95
2022-12-02T17:19:05.638Z,8.63
2022-12-02T17:21:31.970Z,10.93
2022-12-02T17:23:58.373Z,9.32
2022-12-02T17:26:24.678Z,13.18
2022-12-02T17:28:51.158Z,8.18
2022-12-02T17:31:17.511Z,6.30
2022-12-02T17:33:43.838Z,6.88
2022-12-02T17:36:10.217Z,8.18
2022-12-02T17:38:55.661Z,7.30
2022-12-02T17:41:23.829Z,6.72
2022-12-02T17:43:50.202Z,6.70
2022-12-02T17:46:16.701Z,6.50
2022-12-02T17:48:44.070Z,6.10
2022-12-02T17:51:11.003Z,6.88
2022-12-02T17:53:37.866Z,6.05
2022-12-02T17:56:05.304Z,6.78
2022-12-02T17:58:32.232Z,7.03
2022-12-02T18:00:58.715Z,7.07
2022-12-02T18:03:25.242Z,6.72
2022-12-02T18:05:51.655Z,6.63
2022-12-02T18:08:20.134Z,6.93
2022-12-02T18:10:49.648Z,6.25
2022-12-02T18:13:16.824Z,6.38
2022-12-02T18:15:43.261Z,6.57
2022-12-02T18:18:10.161Z,5.75
2022-12-02T18:20:36.838Z,6.35
2022-12-02T18:23:03.229Z,7.85
2022-12-02T18:25:29.634Z,8.90
2022-12-02T18:27:56.066Z,8.68
2022-12-02T18:30:22.478Z,6.55
2022-12-02T18:32:49.026Z,5.57
2022-12-02T18:35:16.486Z,5.43
2022-12-02T18:37:42.981Z,5.70
2022-12-02T18:40:15.195Z,6.43
2022-12-02T18:42:41.535Z,5.70
2022-12-02T18:45:08.688Z,5.38
2022-12-02T18:47:34.990Z,5.47
2022-12-02T18:50:01.308Z,6.03
2022-12-02T18:52:27.690Z,5.57
2022-12-02T18:54:54.221Z,6.18
2022-12-02T18:57:20.886Z,10.70
2022-12-02T18:59:47.237Z,8.70
2022-12-02T19:02:14.054Z,6.30
2022-12-02T19:04:40.590Z,6.57
2022-12-02T19:07:06.976Z,6.95
2022-12-02T19:09:33.330Z,7.90
2022-12-02T19:11:59.675Z,7.75
2022-12-02T19:14:26.101Z,14.85
2022-12-02T19:16:52.401Z,7.65
2022-12-02T19:19:18.895Z,5.68
2022-12-02T19:21:45.247Z,5.75
2022-12-02T19:24:11.680Z,6.22
2022-12-02T19:26:38.030Z,9.63
2022-12-02T19:29:04.373Z,7.28
2022-12-02T19:31:32.004Z,9.00
2022-12-02T19:33:58.465Z,6.95
2022-12-02T19:36:24.865Z,6.10
2022-12-02T19:38:51.271Z,6.90
2022-12-02T19:41:17.778Z,7.88
2022-12-02T19:43:44.140Z,5.72
2022-12-02T19:46:10.616Z,6.47
2022-12-02T19:48:36.992Z,6.03
2022-12-02T19:51:03.448Z,6.35
2022-12-02T19:53:29.838Z,6.72
2022-12-02T19:55:56.179Z,5.95
2022-12-02T19:58:22.513Z,5.32
2022-12-02T20:00:48.917Z,5.10
2022-12-02T20:03:15.406Z,5.47
2022-12-02T20:05:41.789Z,5.40
2022-12-02T20:08:08.284Z,5.50
2022-12-02T20:10:34.879Z,9.65
2022-12-02T20:13:01.242Z,6.20
2022-12-02T20:15:27.605Z,5.57
2022-12-02T20:17:53.922Z,5.35
2022-12-02T20:20:20.261Z,5.68
2022-12-02T20:22:46.611Z,5.60
2022-12-02T20:25:13.233Z,5.70
2022-12-02T20:27:39.645Z,8.13
2022-12-02T20:30:08.433Z,5.43
2022-12-02T20:32:35.328Z,5.90
2022-12-02T20:35:02.260Z,5.50
2022-12-02T20:37:28.581Z,6.05
2022-12-02T20:39:54.953Z,6.05
2022-12-02T20:42:21.279Z,5.75
2022-12-02T20:44:52.364Z,6.40
2022-12-02T20:47:19.266Z,5.25
2022-12-02T20:49:45.652Z,5.10
2022-12-02T20:52:11.995Z,5.20
2022-12-02T20:54:38.374Z,4.97
2022-12-02T20:57:06.782Z,5.57
2022-12-02T20:59:33.143Z,4.78
2022-12-02T21:01:59.515Z,5.55
2022-12-02T21:04:25.946Z,5.32
2022-12-02T21:06:52.233Z,6.47
2022-12-02T21:09:18.635Z,5.88
2022-12-02T21:11:44.981Z,5.68
2022-12-02T21:14:11.367Z,6.82
2022-12-02T21:16:38.030Z,5.60
2022-12-02T21:19:04.787Z,5.97
2022-12-02T21:21:31.304Z,6.75
2022-12-02T21:24:03.343Z,5.50
2022-12-02T21:26:30.550Z,5.68
2022-12-02T21:28:56.968Z,6.13
2022-12-02T21:31:23.555Z,5.85
2022-12-02T21:33:50.019Z,5.45
2022-12-02T21:36:16.364Z,5.70
2022-12-02T21:38:42.728Z,5.97
2022-12-02T21:41:09.056Z,7.20
2022-12-02T21:43:35.362Z,6.00
2022-12-02T21:46:01.757Z,5.60
2022-12-02T21:48:28.251Z,6.15
2022-12-02T21:50:54.614Z,5.97
2022-12-02T21:53:21.447Z,6.70
2022-12-02T21:55:47.822Z,6.25
2022-12-02T21:58:14.161Z,6.18
2022-12-02T22:00:40.537Z,5.32
2022-12-02T22:03:10.561Z,5.30
2022-12-02T22:05:41.013Z,5.85
2022-12-02T22:08:07.485Z,5.95
2022-12-02T22:10:34.680Z,5.70
2022-12-02T22:13:01.045Z,5.47
2022-12-02T22:15:27.401Z,6.47
2022-12-02T22:17:55.006Z,6.07
2022-12-02T22:20:21.789Z,5.65
2022-12-02T22:22:48.172Z,6.15
2022-12-02T22:25:14.519Z,5.90
2022-12-02T22:27:40.877Z,6.43
2022-12-02T22:30:08.226Z,6.22
2022-12-02T22:32:35.261Z,6.25
2022-12-02T22:35:02.037Z,5.95
2022-12-02T22:37:28.501Z,5.38
2022-12-02T22:39:54.856Z,6.25
2022-12-02T22:42:21.163Z,6.55
2022-12-02T22:44:47.544Z,6.25
2022-12-02T22:47:13.868Z,6.60
2022-12-02T22:49:40.219Z,6.20
2022-12-02T22:52:07.386Z,6.97
2022-12-02T22:54:33.742Z,6.93
2022-12-02T22:57:00.108Z,6.07
2022-12-02T22:59:26.467Z,7.07
2022-12-02T23:01:52.841Z,6.70
2022-12-02T23:04:19.287Z,6.30
2022-12-02T23:06:45.689Z,6.28
2022-12-02T23:09:12.494Z,6.78
2022-12-02T23:11:38.852Z,5.95
2022-12-02T23:14:05.211Z,6.65
2022-12-02T23:16:31.582Z,6.03
2022-12-02T23:18:58.106Z,7.35
2022-12-02T23:21:24.430Z,6.78
2022-12-02T23:23:50.771Z,7.05
2022-12-02T23:26:17.130Z,6.32
2022-12-02T23:28:43.694Z,6.50
2022-12-02T23:31:10.089Z,7.00
2022-12-02T23:33:36.599Z,7.20
2022-12-02T23:36:03.119Z,6.07
2022-12-02T23:38:29.489Z,6.43
2022-12-02T23:40:55.819Z,6.32
2022-12-02T23:43:22.158Z,7.05
2022-12-02T23:45:48.498Z,6.88
2022-12-02T23:48:14.896Z,7.15
2022-12-02T23:50:41.296Z,6.75
2022-12-02T23:53:07.652Z,6.72
2022-12-02T23:55:33.967Z,6.47
2022-12-02T23:58:00.305Z,6.95
